createdAt,value
2019-02-21T00:01:07.008Z,34.70
2019-02-21T00:03:36.092Z,42.37
2019-02-21T00:06:05.196Z,39.40
2019-02-21T00:08:34.294Z,37.27
2019-02-21T00:11:03.375Z,38.13
2019-02-21T00:13:32.496Z,38.93
2019-02-21T00:16:01.574Z,38.87
2019-02-21T00:18:30.665Z,36.60
2019-02-21T00:20:59.751Z,38.00
2019-02-21T00:23:28.824Z,38.23
2019-02-21T00:25:57.914Z,37.67
2019-02-21T00:28:27.872Z,36.63
2019-02-21T00:30:56.989Z,38.83
2019-02-21T00:33:26.058Z,37.47
2019-02-21T00:35:55.150Z,39.07
2019-02-21T00:38:24.236Z,38.07
2019-02-21T00:40:53.346Z,39.33
2019-02-21T00:43:22.425Z,41.23
2019-02-21T00:45:51.496Z,39.07
2019-02-21T00:48:20.635Z,37.57
2019-02-21T00:50:49.704Z,38.17
2019-02-21T00:53:18.824Z,40.17
2019-02-21T00:55:47.958Z,41.07
2019-02-21T00:58:17.044Z,43.13
2019-02-21T01:00:46.974Z,41.33
2019-02-21T01:03:16.228Z,43.27
2019-02-21T01:05:45.309Z,42.87
2019-02-21T01:08:14.420Z,42.93
2019-02-21T01:10:43.595Z,42.90
2019-02-21T01:13:12.609Z,42.67
2019-02-21T01:15:41.704Z,39.87
2019-02-21T01:18:10.790Z,36.83
2019-02-21T01:20:39.946Z,37.60
2019-02-21T01:23:09.022Z,39.17
2019-02-21T01:25:38.117Z,37.10
2019-02-21T01:28:07.191Z,38.50
2019-02-21T01:30:36.387Z,40.93
2019-02-21T01:33:05.482Z,39.93
2019-02-21T01:35:34.656Z,39.93
2019-02-21T01:38:03.731Z,41.40
2019-02-21T01:40:32.833Z,39.20
2019-02-21T01:43:01.917Z,37.70
2019-02-21T01:45:31.074Z,39.57
2019-02-21T01:48:00.127Z,36.87
2019-02-21T01:50:31.494Z,37.97
2019-02-21T01:53:00.052Z,37.03
2019-02-21T01:55:29.152Z,37.73
2019-02-21T01:57:58.234Z,37.87
2019-02-21T02:00:27.396Z,40.93
2019-02-21T02:02:56.494Z,37.67
2019-02-21T02:05:25.572Z,36.17
2019-02-21T02:07:54.670Z,35.40
2019-02-21T02:10:23.741Z,36.73
2019-02-21T02:12:52.842Z,35.53
2019-02-21T02:15:21.920Z,38.27
2019-02-21T02:17:51.001Z,38.00
2019-02-21T02:20:20.098Z,36.20
2019-02-21T02:22:49.203Z,36.60
2019-02-21T02:25:18.290Z,35.47
2019-02-21T02:27:47.374Z,35.60
2019-02-21T02:30:16.466Z,37.33
2019-02-21T02:32:45.615Z,37.20
2019-02-21T02:35:14.814Z,40.10
2019-02-21T02:37:43.926Z,39.13
2019-02-21T02:40:13.054Z,37.00
2019-02-21T02:42:42.112Z,34.57
2019-02-21T02:45:11.218Z,36.97
2019-02-21T02:47:40.293Z,42.80
2019-02-21T02:50:09.358Z,43.43
2019-02-21T02:52:38.466Z,41.60
2019-02-21T02:55:07.548Z,38.73
2019-02-21T02:57:36.648Z,39.90
2019-02-21T03:00:06.698Z,39.13
2019-02-21T03:02:35.843Z,42.13
2019-02-21T03:05:05.276Z,41.50
2019-02-21T03:07:34.365Z,44.33
2019-02-21T03:10:03.731Z,41.83
2019-02-21T03:12:32.828Z,42.83
2019-02-21T03:15:01.912Z,41.70
2019-02-21T03:17:31.087Z,39.13
2019-02-21T03:20:00.304Z,39.67
2019-02-21T03:22:29.348Z,38.60
2019-02-21T03:24:58.444Z,36.57
2019-02-21T03:27:27.526Z,36.20
2019-02-21T03:29:56.610Z,39.67
2019-02-21T03:32:25.686Z,38.67
2019-02-21T03:34:54.784Z,39.63
2019-02-21T03:37:23.901Z,38.77
2019-02-21T03:39:52.999Z,40.07
2019-02-21T03:42:22.087Z,40.43
2019-02-21T03:44:51.226Z,42.33
2019-02-21T03:47:20.322Z,40.50
2019-02-21T03:49:49.404Z,38.80
2019-02-21T03:52:18.596Z,38.07
2019-02-21T03:54:47.680Z,40.30
2019-02-21T03:57:16.836Z,40.40
2019-02-21T03:59:45.921Z,38.63
2019-02-21T04:02:15.029Z,38.47
2019-02-21T04:04:44.092Z,43.07
2019-02-21T04:07:13.184Z,41.30
2019-02-21T04:09:42.276Z,43.37
2019-02-21T04:12:11.365Z,45.07
2019-02-21T04:14:40.546Z,47.87
2019-02-21T04:17:09.666Z,43.53
2019-02-21T04:19:38.777Z,45.17
2019-02-21T04:22:07.869Z,43.53
2019-02-21T04:24:36.958Z,41.93
2019-02-21T04:27:06.035Z,42.13
2019-02-21T04:29:35.141Z,45.43
2019-02-21T04:32:09.120Z,46.23
2019-02-21T04:34:35.042Z,48.90
2019-02-21T04:37:04.112Z,46.90
2019-02-21T04:39:33.180Z,45.73
2019-02-21T04:42:02.245Z,47.47
2019-02-21T04:44:31.325Z,48.07
2019-02-21T04:47:00.402Z,45.87
2019-02-21T04:49:29.502Z,44.90
2019-02-21T04:51:58.593Z,45.33
2019-02-21T04:54:27.701Z,44.23
2019-02-21T04:56:56.808Z,43.90
2019-02-21T04:59:25.917Z,41.33
2019-02-21T05:01:55.015Z,43.50
2019-02-21T05:04:24.108Z,45.33
2019-02-21T05:06:53.209Z,42.97
2019-02-21T05:09:22.290Z,42.90
2019-02-21T05:11:51.382Z,40.70
2019-02-21T05:14:20.491Z,38.40
2019-02-21T05:16:49.578Z,40.67
2019-02-21T05:19:18.729Z,39.70
2019-02-21T05:21:47.833Z,39.00
2019-02-21T05:24:16.921Z,39.23
2019-02-21T05:26:53.024Z,38.07
2019-02-21T05:29:22.187Z,39.63
2019-02-21T05:32:13.347Z,39.20
2019-02-21T05:35:03.208Z,37.43
2019-02-21T05:38:07.733Z,39.30
2019-02-21T05:41:08.379Z,39.97
2019-02-21T05:43:47.677Z,36.57
2019-02-21T05:46:35.900Z,38.00
2019-02-21T05:49:16.983Z,38.57
2019-02-21T05:52:02.183Z,35.97
2019-02-21T05:54:46.728Z,37.77
2019-02-21T05:57:46.953Z,36.53
2019-02-21T06:00:24.155Z,37.87
2019-02-21T06:03:10.842Z,37.07
2019-02-21T06:05:47.065Z,36.67
2019-02-21T06:08:38.239Z,36.23
2019-02-21T06:11:22.232Z,37.17
2019-02-21T06:14:10.417Z,38.03
2019-02-21T06:16:57.906Z,38.33
2019-02-21T06:19:34.053Z,36.80
2019-02-21T06:22:12.031Z,35.43
2019-02-21T06:25:00.323Z,35.93
2019-02-21T06:27:39.706Z,37.97
2019-02-21T06:30:22.507Z,40.03
2019-02-21T06:32:51.573Z,38.43
2019-02-21T06:35:20.747Z,37.07
2019-02-21T06:37:49.815Z,38.73
2019-02-21T06:40:18.890Z,38.63
2019-02-21T06:42:47.967Z,38.30
2019-02-21T06:45:18.165Z,36.50
2019-02-21T06:47:47.422Z,37.47
2019-02-21T06:50:26.161Z,37.27
2019-02-21T06:52:47.383Z,36.33
2019-02-21T06:55:16.470Z,36.87
2019-02-21T06:57:45.559Z,35.30
2019-02-21T07:00:14.667Z,37.07
2019-02-21T07:02:43.773Z,35.70
2019-02-21T07:05:12.879Z,36.07
2019-02-21T07:07:41.964Z,39.93
2019-02-21T07:10:11.053Z,39.30
2019-02-21T07:12:40.135Z,38.07
2019-02-21T07:15:10.174Z,39.37
2019-02-21T07:17:48.819Z,35.83
2019-02-21T07:20:10.260Z,37.23
2019-02-21T07:22:41.086Z,36.50
2019-02-21T07:25:29.225Z,37.30
2019-02-21T07:27:58.536Z,37.83
2019-02-21T07:30:27.773Z,37.73
2019-02-21T07:32:56.854Z,38.37
2019-02-21T07:35:25.959Z,36.83
2019-02-21T07:37:55.039Z,37.83
2019-02-21T07:40:24.131Z,37.80
2019-02-21T07:42:53.255Z,39.33
2019-02-21T07:45:22.310Z,39.83
2019-02-21T07:47:51.428Z,41.80
2019-02-21T07:50:23.054Z,41.37
2019-02-21T07:53:01.659Z,45.80
2019-02-21T07:55:22.219Z,44.03
2019-02-21T07:57:51.347Z,47.07
2019-02-21T08:00:20.442Z,45.73
2019-02-21T08:02:49.554Z,46.57
2019-02-21T08:05:18.662Z,44.17
2019-02-21T08:07:49.816Z,43.73
2019-02-21T08:10:21.113Z,47.17
2019-02-21T08:12:49.537Z,43.40
2019-02-21T08:15:18.618Z,42.70
2019-02-21T08:17:47.684Z,45.40
2019-02-21T08:20:16.823Z,42.00
2019-02-21T08:22:46.064Z,44.03
2019-02-21T08:25:15.196Z,44.57
2019-02-21T08:27:44.442Z,43.23
2019-02-21T08:30:15.410Z,40.43
2019-02-21T08:33:19.116Z,41.13
2019-02-21T08:35:48.360Z,36.73
2019-02-21T08:38:17.444Z,40.90
2019-02-21T08:40:46.554Z,40.73
2019-02-21T08:43:15.622Z,34.90
2019-02-21T08:45:44.784Z,39.77
2019-02-21T08:48:13.939Z,36.43
2019-02-21T08:50:47.117Z,38.47
2019-02-21T08:53:16.216Z,37.73
2019-02-21T08:55:45.367Z,34.63
2019-02-21T08:58:14.540Z,35.13
2019-02-21T09:00:43.704Z,35.53
2019-02-21T09:03:12.833Z,35.10
2019-02-21T09:05:41.949Z,33.47
2019-02-21T09:08:11.085Z,32.97
2019-02-21T09:10:40.158Z,32.17
2019-02-21T09:13:09.303Z,33.10
2019-02-21T09:15:38.435Z,33.03
2019-02-21T09:18:07.667Z,31.17
2019-02-21T09:20:36.776Z,30.97
2019-02-21T09:23:06.037Z,31.27
2019-02-21T09:25:35.223Z,31.47
2019-02-21T09:28:04.365Z,29.67
2019-02-21T09:30:33.560Z,30.93
2019-02-21T09:33:02.631Z,29.07
2019-02-21T09:35:31.830Z,29.10
2019-02-21T09:38:00.918Z,29.07
2019-02-21T09:40:30.033Z,28.90
2019-02-21T09:42:59.203Z,29.60
2019-02-21T09:45:28.319Z,30.17
2019-02-21T09:47:57.427Z,28.33
2019-02-21T09:50:26.568Z,28.20
2019-02-21T09:52:55.721Z,29.03
2019-02-21T09:55:24.809Z,28.93
2019-02-21T09:57:53.934Z,28.97
2019-02-21T10:00:23.028Z,29.23
2019-02-21T10:02:55.605Z,29.07
2019-02-21T10:05:22.960Z,28.90
2019-02-21T10:07:52.051Z,28.40
2019-02-21T10:10:21.125Z,28.13
2019-02-21T10:12:50.228Z,29.80
2019-02-21T10:15:19.332Z,28.57
2019-02-21T10:17:50.826Z,28.47
2019-02-21T10:20:19.687Z,28.23
2019-02-21T10:22:48.773Z,27.50
2019-02-21T10:25:23.312Z,30.20
2019-02-21T10:27:52.655Z,29.37
2019-02-21T10:30:22.127Z,29.37
2019-02-21T10:32:51.236Z,29.13
2019-02-21T10:35:20.344Z,30.00
2019-02-21T10:37:49.436Z,29.43
2019-02-21T10:40:18.757Z,29.50
2019-02-21T10:42:47.955Z,28.83
2019-02-21T10:45:18.100Z,29.23
2019-02-21T10:47:47.183Z,28.93
2019-02-21T10:50:17.779Z,28.80
2019-02-21T10:52:46.932Z,28.13
2019-02-21T10:55:16.250Z,30.23
2019-02-21T10:57:45.749Z,28.13
2019-02-21T11:00:17.443Z,27.10
2019-02-21T11:02:46.551Z,25.97
2019-02-21T11:05:15.631Z,25.90
2019-02-21T11:07:44.738Z,27.13
2019-02-21T11:10:13.990Z,27.37
2019-02-21T11:12:43.088Z,27.40
2019-02-21T11:15:13.612Z,25.83
2019-02-21T11:17:42.704Z,25.43
2019-02-21T11:20:14.370Z,25.57
2019-02-21T11:22:43.571Z,23.97
2019-02-21T11:25:12.818Z,23.60
2019-02-21T11:27:41.945Z,23.53
2019-02-21T11:30:14.407Z,23.23
2019-02-21T11:32:43.599Z,23.10
2019-02-21T11:35:13.116Z,23.50
2019-02-21T11:37:46.332Z,22.97
2019-02-21T11:40:14.422Z,22.83
2019-02-21T11:42:43.591Z,20.70
2019-02-21T11:45:14.373Z,21.87
2019-02-21T11:47:43.471Z,21.83
2019-02-21T11:50:14.425Z,22.20
2019-02-21T11:52:43.525Z,20.67
2019-02-21T11:55:14.157Z,19.70
2019-02-21T11:57:43.283Z,18.63
2019-02-21T12:00:15.685Z,19.20
2019-02-21T12:02:44.785Z,18.83
2019-02-21T12:05:17.548Z,16.87
2019-02-21T12:07:46.282Z,18.13
2019-02-21T12:10:15.386Z,16.77
2019-02-21T12:12:44.486Z,17.43
2019-02-21T12:15:13.625Z,17.43
2019-02-21T12:17:43.279Z,16.30
2019-02-21T12:20:13.060Z,16.10
2019-02-21T12:22:42.148Z,16.27
2019-02-21T12:25:12.607Z,17.10
2019-02-21T12:27:41.770Z,17.03
2019-02-21T12:30:13.054Z,16.17
2019-02-21T12:32:42.135Z,16.50
2019-02-21T12:35:11.244Z,15.93
2019-02-21T12:37:40.334Z,15.90
2019-02-21T12:40:11.397Z,16.53
2019-02-21T12:42:40.492Z,15.77
2019-02-21T12:45:12.045Z,17.10
2019-02-21T12:47:49.617Z,16.43
2019-02-21T12:50:12.615Z,17.03
2019-02-21T12:52:41.710Z,16.97
2019-02-21T12:55:10.856Z,17.57
2019-02-21T12:57:40.019Z,16.57
2019-02-21T13:00:14.518Z,17.67
2019-02-21T13:02:43.625Z,17.27
2019-02-21T13:05:12.728Z,17.87
2019-02-21T13:07:41.849Z,17.23
2019-02-21T13:10:13.055Z,17.57
2019-02-21T13:12:42.155Z,16.87
2019-02-21T13:15:12.551Z,17.77
2019-02-21T13:17:41.671Z,18.63
2019-02-21T13:20:11.450Z,19.13
2019-02-21T13:22:40.555Z,18.27
2019-02-21T13:25:10.962Z,18.03
2019-02-21T13:27:40.074Z,17.10
2019-02-21T13:30:11.908Z,16.10
2019-02-21T13:32:41.010Z,15.07
2019-02-21T13:35:10.170Z,15.83
2019-02-21T13:37:39.306Z,16.20
2019-02-21T13:40:09.769Z,15.87
2019-02-21T13:42:38.864Z,15.67
2019-02-21T13:45:08.871Z,15.77
2019-02-21T13:47:39.233Z,15.60
2019-02-21T13:50:14.009Z,16.30
2019-02-21T13:52:43.116Z,16.57
2019-02-21T13:55:12.344Z,15.70
2019-02-21T13:57:41.477Z,14.70
2019-02-21T14:00:13.447Z,16.40
2019-02-21T14:02:42.549Z,17.50
2019-02-21T14:05:11.759Z,17.43
2019-02-21T14:07:40.856Z,16.30
2019-02-21T14:10:10.554Z,15.20
2019-02-21T14:12:39.676Z,14.97
2019-02-21T14:15:11.499Z,14.97
2019-02-21T14:17:40.581Z,17.47
2019-02-21T14:20:09.718Z,15.77
2019-02-21T14:22:38.812Z,15.30
2019-02-21T14:25:08.538Z,14.70
2019-02-21T14:27:37.647Z,15.00
2019-02-21T14:30:08.159Z,14.43
2019-02-21T14:32:37.192Z,13.83
2019-02-21T14:35:07.103Z,14.30
2019-02-21T14:37:36.178Z,14.90
2019-02-21T14:40:05.789Z,16.70
2019-02-21T14:42:35.020Z,18.60
2019-02-21T14:45:04.206Z,18.77
2019-02-21T14:47:33.406Z,20.23
2019-02-21T14:50:04.569Z,19.47
2019-02-21T14:52:33.337Z,19.50
2019-02-21T14:55:02.507Z,19.90
2019-02-21T14:57:40.440Z,18.47
2019-02-21T15:00:02.551Z,17.00
2019-02-21T15:02:31.758Z,16.57
2019-02-21T15:05:00.877Z,15.97
2019-02-21T15:07:29.974Z,16.70
2019-02-21T15:09:59.116Z,15.93
2019-02-21T15:12:28.240Z,16.40
2019-02-21T15:14:57.349Z,16.80
2019-02-21T15:17:26.464Z,15.77
2019-02-21T15:19:55.610Z,16.73
2019-02-21T15:22:24.734Z,18.03
2019-02-21T15:24:53.897Z,18.00
2019-02-21T15:27:23.612Z,16.07
2019-02-21T15:29:52.881Z,17.30
2019-02-21T15:32:22.084Z,16.40
2019-02-21T15:34:51.268Z,16.07
2019-02-21T15:37:20.406Z,15.40
2019-02-21T15:39:49.584Z,14.50
2019-02-21T15:42:18.762Z,15.40
2019-02-21T15:44:47.894Z,15.73
2019-02-21T15:47:17.064Z,14.53
2019-02-21T15:49:46.198Z,14.77
2019-02-21T15:52:22.169Z,16.27
2019-02-21T15:54:46.139Z,15.70
2019-02-21T15:57:15.298Z,15.10
2019-02-21T15:59:44.491Z,16.10
2019-02-21T16:02:13.664Z,15.50
2019-02-21T16:04:42.856Z,15.60
2019-02-21T16:07:12.006Z,16.33
2019-02-21T16:09:41.150Z,15.93
2019-02-21T16:12:10.277Z,15.47
2019-02-21T16:14:39.500Z,15.77
2019-02-21T16:17:08.708Z,14.93
2019-02-21T16:19:37.882Z,16.80
2019-02-21T16:22:07.141Z,15.93
2019-02-21T16:24:37.919Z,16.87
2019-02-21T16:27:07.491Z,15.27
2019-02-21T16:29:36.801Z,15.70
2019-02-21T16:32:05.904Z,15.07
2019-02-21T16:34:35.040Z,16.10
2019-02-21T16:37:04.182Z,16.37
2019-02-21T16:39:33.316Z,17.23
2019-02-21T16:42:02.584Z,15.87
2019-02-21T16:44:31.719Z,16.50
2019-02-21T16:47:00.822Z,15.60
2019-02-21T16:49:29.995Z,17.47
2019-02-21T16:51:59.131Z,16.77
2019-02-21T16:54:28.268Z,17.13
2019-02-21T16:56:57.423Z,16.70
2019-02-21T16:59:26.632Z,17.83
2019-02-21T17:01:55.804Z,17.13
2019-02-21T17:04:24.922Z,16.80
2019-02-21T17:06:54.111Z,16.90
2019-02-21T17:09:23.215Z,16.27
2019-02-21T17:11:52.342Z,17.40
2019-02-21T17:14:21.425Z,15.50
2019-02-21T17:16:50.570Z,18.20
2019-02-21T17:19:19.729Z,16.97
2019-02-21T17:21:48.930Z,17.70
2019-02-21T17:24:18.095Z,16.97
2019-02-21T17:26:47.223Z,17.30
2019-02-21T17:29:16.417Z,20.97
2019-02-21T17:31:45.614Z,22.10
2019-02-21T17:34:14.720Z,20.70
2019-02-21T17:36:43.838Z,20.30
2019-02-21T17:39:13.159Z,19.93
2019-02-21T17:41:42.222Z,28.13
2019-02-21T17:44:11.307Z,25.63
2019-02-21T17:46:40.442Z,20.23
2019-02-21T17:49:09.554Z,19.37
2019-02-21T17:51:38.687Z,20.40
2019-02-21T17:54:07.804Z,20.07
2019-02-21T17:56:36.975Z,20.47
2019-02-21T17:59:06.145Z,21.53
2019-02-21T18:01:35.307Z,19.47
2019-02-21T18:04:04.425Z,19.33
2019-02-21T18:06:33.523Z,19.57
2019-02-21T18:09:04.094Z,21.23
2019-02-21T18:11:33.250Z,21.60
2019-02-21T18:14:04.130Z,21.83
2019-02-21T18:16:33.348Z,19.97
2019-02-21T18:19:02.410Z,20.80
2019-02-21T18:21:31.510Z,20.23
2019-02-21T18:24:00.637Z,20.87
2019-02-21T18:26:31.911Z,20.17
2019-02-21T18:29:00.625Z,21.27
2019-02-21T18:31:29.779Z,19.20
2019-02-21T18:33:58.963Z,21.23
2019-02-21T18:36:28.100Z,22.03
2019-02-21T18:38:57.191Z,23.10
2019-02-21T18:41:26.313Z,21.00
2019-02-21T18:43:55.473Z,21.07
2019-02-21T18:46:24.654Z,20.90
2019-02-21T18:48:53.773Z,21.00
2019-02-21T18:51:22.881Z,22.70
2019-02-21T18:53:52.046Z,22.80
2019-02-21T18:56:21.150Z,21.23
2019-02-21T18:58:50.280Z,22.70
2019-02-21T19:01:19.398Z,21.07
2019-02-21T19:03:48.630Z,19.47
2019-02-21T19:06:17.774Z,20.23
2019-02-21T19:08:47.062Z,19.50
2019-02-21T19:11:16.157Z,20.27
2019-02-21T19:13:45.260Z,20.37
2019-02-21T19:16:14.488Z,19.90
2019-02-21T19:18:43.587Z,19.93
2019-02-21T19:21:12.715Z,19.00
2019-02-21T19:23:41.812Z,19.83
2019-02-21T19:26:10.920Z,19.50
2019-02-21T19:28:40.022Z,19.63
2019-02-21T19:31:12.428Z,21.37
2019-02-21T19:33:41.531Z,19.53
2019-02-21T19:36:10.720Z,19.77
2019-02-21T19:38:39.864Z,19.17
2019-02-21T19:41:09.067Z,19.07
2019-02-21T19:43:38.193Z,19.80
2019-02-21T19:46:07.273Z,19.53
2019-02-21T19:48:36.399Z,19.30
2019-02-21T19:51:05.877Z,20.47
2019-02-21T19:53:34.980Z,19.70
2019-02-21T19:56:06.123Z,19.93
2019-02-21T19:58:35.210Z,20.20
2019-02-21T20:01:04.504Z,20.07
2019-02-21T20:03:33.655Z,18.70
2019-02-21T20:06:02.779Z,19.43
2019-02-21T20:08:31.913Z,20.57
2019-02-21T20:11:01.075Z,20.80
2019-02-21T20:13:30.200Z,19.67
2019-02-21T20:15:59.371Z,20.63
2019-02-21T20:18:28.526Z,20.07
2019-02-21T20:20:57.654Z,19.53
2019-02-21T20:23:26.753Z,18.37
2019-02-21T20:25:55.893Z,20.60
2019-02-21T20:28:25.067Z,18.63
2019-02-21T20:30:54.171Z,18.77
2019-02-21T20:33:24.672Z,20.53
2019-02-21T20:35:53.768Z,19.10
2019-02-21T20:38:31.814Z,19.07
2019-02-21T20:40:53.822Z,18.83
2019-02-21T20:43:22.950Z,19.17
2019-02-21T20:45:53.326Z,18.93
2019-02-21T20:48:22.661Z,19.50
2019-02-21T20:50:56.957Z,18.80
2019-02-21T20:53:22.657Z,19.67
2019-02-21T20:55:51.763Z,19.60
2019-02-21T20:58:20.875Z,20.50
2019-02-21T21:00:50.159Z,19.33
2019-02-21T21:03:19.354Z,20.97
2019-02-21T21:05:48.474Z,21.33
2019-02-21T21:08:17.584Z,19.57
2019-02-21T21:10:46.712Z,20.10
2019-02-21T21:13:15.936Z,21.00
2019-02-21T21:15:45.162Z,20.57
2019-02-21T21:18:14.318Z,20.97
2019-02-21T21:20:43.403Z,22.70
2019-02-21T21:23:12.512Z,21.03
2019-02-21T21:25:41.685Z,21.33
2019-02-21T21:28:10.811Z,21.83
2019-02-21T21:30:40.041Z,21.03
2019-02-21T21:33:09.155Z,22.03
2019-02-21T21:35:38.258Z,22.23
2019-02-21T21:38:07.373Z,21.30
2019-02-21T21:40:36.482Z,22.03
2019-02-21T21:43:05.554Z,22.07
2019-02-21T21:45:34.688Z,21.53
2019-02-21T21:48:03.762Z,21.20
2019-02-21T21:50:32.976Z,22.10
2019-02-21T21:53:02.066Z,21.47
2019-02-21T21:55:31.207Z,22.67
2019-02-21T21:58:00.345Z,23.47
2019-02-21T22:00:29.454Z,22.17
2019-02-21T22:02:58.559Z,22.73
2019-02-21T22:05:27.894Z,23.30
2019-02-21T22:07:57.175Z,23.47
2019-02-21T22:10:26.352Z,22.83
2019-02-21T22:12:55.447Z,23.57
2019-02-21T22:15:24.572Z,23.70
2019-02-21T22:17:53.643Z,24.07
2019-02-21T22:20:22.729Z,23.20
2019-02-21T22:22:51.851Z,23.73
2019-02-21T22:25:20.964Z,25.27
2019-02-21T22:27:50.083Z,24.60
2019-02-21T22:30:19.182Z,24.73
2019-02-21T22:32:48.402Z,23.57
2019-02-21T22:35:17.586Z,24.63
2019-02-21T22:37:46.696Z,24.93
2019-02-21T22:40:15.828Z,25.50
2019-02-21T22:42:44.916Z,24.47
2019-02-21T22:45:14.229Z,25.87
2019-02-21T22:47:43.328Z,24.63
2019-02-21T22:50:13.830Z,24.33
2019-02-21T22:52:42.908Z,24.17
2019-02-21T22:55:12.097Z,24.03
2019-02-21T22:57:41.268Z,32.87
2019-02-21T23:01:00.522Z,37.30
2019-02-21T23:03:54.458Z,28.40
2019-02-21T23:06:51.433Z,24.57
2019-02-21T23:09:27.695Z,26.00
2019-02-21T23:11:53.465Z,23.60
2019-02-21T23:14:22.614Z,23.27
2019-02-21T23:16:51.725Z,24.73
2019-02-21T23:19:20.872Z,25.27
2019-02-21T23:21:49.944Z,24.23
2019-02-21T23:24:19.042Z,26.70
2019-02-21T23:26:48.140Z,26.37
2019-02-21T23:29:17.236Z,25.40
2019-02-21T23:31:46.417Z,26.53
2019-02-21T23:34:21.808Z,26.13
2019-02-21T23:36:50.961Z,26.03
2019-02-21T23:39:20.028Z,27.80
2019-02-21T23:41:49.120Z,28.27
2019-02-21T23:44:18.244Z,26.57
2019-02-21T23:46:47.640Z,26.77
2019-02-21T23:49:16.770Z,27.00
2019-02-21T23:51:45.866Z,26.27
2019-02-21T23:54:14.949Z,27.07
2019-02-21T23:56:44.034Z,27.37
2019-02-21T23:59:13.132Z,25.93
